Warning: Javascript must be enabled to use all the features on this page!


Page Loading - Please Wait...

Click to hideNews Bulletins

Peak Streamflow for the Nation

USGS 04273700 SALMON RIVER AT SOUTH PLATTSBURGH NY

Clinton County, New York
Hydrologic Unit Code 04150408
Latitude  44°38'24", Longitude  73°29'41" NAD83
Drainage area 63.3  square miles
Gage datum 220.45 feet above NAVD88
Output formats
Table
Graph
Tab-separated file
peakfq (watstore) format
Reselect output format
Water
Year
Date Gage
Height
(feet)
Stream-
flow
(cfs)
1960 1960-04-03 4.542 1,010
1961 1961-04-23 2.902 337
1962 1962-03-31 3.292 472
1963 1963-04-04 4.602 1,040
1964 1964-03-05 3.762 659
1965 1965-04-12 2.542 231
1966 1966-03-25 3.392 518
1967 1967-04-18 2.862 334
1968 1968-03-23   850
1969 1969-03-25 4.47 976
1970 1970-04-25   8002
1971 1971-05-04 4.042 778
1972 1972-03-23 5.05 1,260
1973 1973-06-22 5.30 1,520
1974 1974-03-05 5.601  
1975 1975-04-20 3.72 738
1976 1976-05-12 3.61 689
1977 1977-09-26 4.082 900
1978 1977-10-17 5.02 1,400
1979 1979-04-02 3.462 624
1980 1979-11-27 2.552 282
1981 1981-09-23 3.932 830
1982 1981-10-28 3.982 853
1983 1983-04-25 3.732 743
1984 1983-12-14 5.79 1,890
1985 1984-12-29 3.032 504
1986 1986-03-19 3.742 796
1990 1990-04-04 4.532 1,240
1991 1991-03-04 5.132 1,720
1992 1992-03-27 5.662 2,220
1993 1993-04-23 3.652 825
1994 1994-04-16 4.072 1,020
1995 1995-01-21 2.542 295
1996 1995-10-22 4.992 1,700
1997 1996-11-09 7.56 4,200
1998 1998-06-27 7.54 4,170
1999 1999-03-22 4.002 926
2000 2000-02-28 5.192 1,750
2001 2001-04-13 4.352 1,140
2002 2002-06-12 4.45 1,120
2003 2003-03-21 4.541,2 9502
2004 2004-04-02 3.732 690
2005 2005-06-17 4.58 1,210
2006 2005-10-26 3.802 726
2007 2007-04-17 3.442 556
2008 2008-08-08 4.522 1,170
2009 2009-08-11 3.752 700
2010 2010-03-23 4.55 1,190
2011 2011-08-29 6.01 2,4809
2012 2012-04-23 3.412 543
2013 2013-06-12 5.48 1,990
2014 2014-04-15 4.032 851
2015 2015-06-13 4.31 1,040
2016 2016-04-08 3.372 526
2017 2017-06-30 4.19 989
2018 2018-02-21 4.56 1,190
2019 2019-05-10 3.622 637
2020 2020-01-12 3.942 823
?
  Peak Gage-Height Qualification Codes.
?
  Peak Streamflow Qualification Codes.